createdAt,value
2019-03-17T00:03:02.594Z,3.87
2019-03-17T00:06:08.010Z,4.30
2019-03-17T00:09:16.547Z,4.37
2019-03-17T00:12:21.964Z,3.83
2019-03-17T00:15:27.363Z,4.30
2019-03-17T00:18:32.632Z,4.70
2019-03-17T00:21:37.876Z,3.93
2019-03-17T00:24:43.144Z,4.10
2019-03-17T00:27:48.395Z,4.43
2019-03-17T00:30:53.666Z,4.00
2019-03-17T00:33:59.007Z,4.20
2019-03-17T00:37:04.337Z,3.87
2019-03-17T00:40:10.003Z,4.53
2019-03-17T00:43:15.388Z,4.20
2019-03-17T00:46:20.687Z,3.60
2019-03-17T00:49:25.938Z,4.10
2019-03-17T00:52:31.182Z,4.03
2019-03-17T00:55:36.440Z,4.10
2019-03-17T00:58:41.682Z,4.00
2019-03-17T01:01:52.012Z,4.00
2019-03-17T01:04:56.336Z,4.00
2019-03-17T01:08:01.181Z,4.07
2019-03-17T01:11:06.492Z,4.00
2019-03-17T01:14:11.921Z,4.27
2019-03-17T01:17:17.143Z,4.40
2019-03-17T01:20:22.533Z,3.70
2019-03-17T01:23:27.812Z,4.07
2019-03-17T01:26:33.165Z,3.83
2019-03-17T01:29:39.986Z,3.80
2019-03-17T01:32:45.423Z,3.57
2019-03-17T01:35:50.813Z,3.67
2019-03-17T01:38:56.222Z,3.93
2019-03-17T01:42:01.640Z,3.63
2019-03-17T01:45:07.125Z,4.10
2019-03-17T01:48:12.509Z,3.53
2019-03-17T01:51:19.489Z,3.63
2019-03-17T01:54:29.144Z,3.80
2019-03-17T01:57:34.437Z,4.10
2019-03-17T02:00:39.644Z,3.50
2019-03-17T02:03:44.892Z,3.53
2019-03-17T02:06:50.161Z,4.00
2019-03-17T02:09:55.456Z,3.67
2019-03-17T02:13:00.693Z,3.73
2019-03-17T02:16:05.984Z,4.00
2019-03-17T02:19:11.208Z,3.73
2019-03-17T02:22:16.467Z,3.60
2019-03-17T02:25:21.806Z,3.80
2019-03-17T02:28:27.090Z,4.10
2019-03-17T02:31:32.349Z,3.77
2019-03-17T02:34:37.660Z,3.60
2019-03-17T02:37:43.006Z,3.73
2019-03-17T02:40:48.284Z,3.80
2019-03-17T02:43:53.548Z,3.97
2019-03-17T02:46:58.987Z,3.70
2019-03-17T02:50:04.433Z,4.40
2019-03-17T02:53:09.768Z,3.77
2019-03-17T02:56:15.030Z,3.77
2019-03-17T02:59:20.589Z,4.17
2019-03-17T03:02:25.828Z,3.80
2019-03-17T03:05:31.158Z,3.83
2019-03-17T03:08:36.404Z,3.93
2019-03-17T03:11:41.714Z,3.80
2019-03-17T03:15:06.461Z,3.57
2019-03-17T03:18:11.781Z,3.50
2019-03-17T03:21:17.016Z,4.10
2019-03-17T03:24:22.270Z,4.00
2019-03-17T03:27:27.522Z,3.67
2019-03-17T03:30:32.774Z,3.83
2019-03-17T03:33:38.179Z,3.90
2019-03-17T03:36:43.411Z,3.70
2019-03-17T03:39:48.709Z,3.63
2019-03-17T03:42:54.048Z,3.50
2019-03-17T03:45:59.324Z,3.40
2019-03-17T03:49:04.727Z,3.50
2019-03-17T03:52:10.070Z,3.53
2019-03-17T03:55:15.296Z,4.10
2019-03-17T03:58:20.551Z,4.23
2019-03-17T04:01:25.841Z,3.63
2019-03-17T04:04:31.176Z,4.10
2019-03-17T04:07:36.427Z,3.70
2019-03-17T04:10:41.712Z,3.70
2019-03-17T04:13:47.121Z,3.27
2019-03-17T04:16:52.356Z,3.37
2019-03-17T04:19:58.933Z,4.10
2019-03-17T04:23:04.273Z,3.73
2019-03-17T04:26:09.615Z,3.40
2019-03-17T04:29:14.881Z,4.23
2019-03-17T04:32:20.121Z,4.07
2019-03-17T04:35:25.418Z,4.20
2019-03-17T04:38:30.644Z,3.50
2019-03-17T04:41:35.870Z,3.50
2019-03-17T04:44:41.150Z,4.13
2019-03-17T04:47:46.358Z,3.80
2019-03-17T04:50:51.714Z,4.33
2019-03-17T04:53:57.064Z,4.47
2019-03-17T04:57:02.335Z,4.37
2019-03-17T05:00:08.756Z,4.33
2019-03-17T05:03:13.985Z,4.60
2019-03-17T05:06:19.254Z,4.57
2019-03-17T05:09:43.494Z,4.40
2019-03-17T05:12:48.729Z,4.80
2019-03-17T05:15:53.966Z,4.50
2019-03-17T05:18:59.221Z,4.20
2019-03-17T05:22:04.487Z,4.40
2019-03-17T05:25:09.851Z,4.90
2019-03-17T05:28:16.215Z,4.70
2019-03-17T05:31:21.516Z,4.67
2019-03-17T05:34:26.777Z,4.60
2019-03-17T05:37:31.979Z,5.03
2019-03-17T05:40:37.256Z,5.60
2019-03-17T05:43:42.528Z,4.83
2019-03-17T05:46:47.798Z,4.97
2019-03-17T05:49:54.185Z,4.60
2019-03-17T05:52:59.506Z,5.07
2019-03-17T05:56:04.792Z,5.30
2019-03-17T05:59:11.960Z,4.73
2019-03-17T06:02:17.173Z,5.80
2019-03-17T06:05:22.475Z,5.60
2019-03-17T06:08:27.821Z,5.57
2019-03-17T06:11:33.220Z,5.00
2019-03-17T06:14:38.451Z,5.67
2019-03-17T06:17:43.778Z,6.00
2019-03-17T06:20:49.105Z,6.07
2019-03-17T06:23:54.486Z,6.30
2019-03-17T06:26:59.822Z,6.13
2019-03-17T06:30:05.749Z,6.30
2019-03-17T06:33:11.080Z,6.27
2019-03-17T06:36:16.430Z,6.17
2019-03-17T06:39:23.866Z,6.43
2019-03-17T06:42:29.911Z,6.77
2019-03-17T06:45:35.228Z,6.80
2019-03-17T06:48:41.566Z,6.27
2019-03-17T06:51:49.581Z,6.10
2019-03-17T06:54:54.885Z,6.20
2019-03-17T06:58:00.146Z,5.63
2019-03-17T07:01:05.629Z,6.00
2019-03-17T07:04:11.000Z,6.10
2019-03-17T07:07:16.334Z,6.30
2019-03-17T07:10:21.804Z,6.50
2019-03-17T07:13:27.140Z,6.33
2019-03-17T07:16:32.447Z,5.50
2019-03-17T07:19:37.675Z,6.00
2019-03-17T07:22:43.059Z,6.87
2019-03-17T07:25:48.449Z,6.03
2019-03-17T07:28:53.701Z,5.40
2019-03-17T07:31:58.991Z,5.63
2019-03-17T07:35:04.418Z,5.60
2019-03-17T07:38:09.743Z,5.67
2019-03-17T07:41:15.109Z,5.13
2019-03-17T07:44:20.352Z,5.10
2019-03-17T07:47:25.663Z,5.33
2019-03-17T07:50:30.935Z,5.13
2019-03-17T07:53:36.210Z,5.87
2019-03-17T07:56:41.606Z,5.87
2019-03-17T07:59:46.910Z,5.00
2019-03-17T08:02:52.340Z,5.67
2019-03-17T08:05:57.616Z,5.10
2019-03-17T08:09:04.655Z,6.00
2019-03-17T08:12:09.959Z,5.57
2019-03-17T08:15:15.291Z,6.30
2019-03-17T08:18:20.528Z,4.90
2019-03-17T08:21:25.843Z,3.73
2019-03-17T08:24:31.177Z,2.67
2019-03-17T08:27:36.441Z,2.00
2019-03-17T08:30:52.494Z,1.90
2019-03-17T08:33:48.795Z,1.90
2019-03-17T08:36:54.213Z,2.00
2019-03-17T08:39:59.668Z,2.20
2019-03-17T08:43:05.077Z,1.93
2019-03-17T08:46:10.294Z,1.90
2019-03-17T08:49:16.660Z,1.70
2019-03-17T08:52:21.922Z,1.77
2019-03-17T08:55:27.161Z,2.00
2019-03-17T08:58:32.492Z,1.90
2019-03-17T09:01:37.786Z,1.70
2019-03-17T09:04:43.105Z,1.80
2019-03-17T09:07:48.425Z,1.50
2019-03-17T09:10:54.697Z,1.80
2019-03-17T09:14:00.052Z,1.87
2019-03-17T09:17:14.129Z,1.70
2019-03-17T09:20:12.364Z,1.90
2019-03-17T09:23:17.650Z,1.70
2019-03-17T09:26:22.996Z,1.77
2019-03-17T09:29:28.333Z,2.13
2019-03-17T09:32:33.609Z,1.80
2019-03-17T09:35:40.120Z,1.90
2019-03-17T09:38:47.476Z,1.97
2019-03-17T09:41:53.538Z,2.33
2019-03-17T09:44:58.993Z,1.97
2019-03-17T09:48:04.264Z,1.97
2019-03-17T09:51:10.806Z,1.93
2019-03-17T09:54:16.063Z,1.97
2019-03-17T09:57:21.373Z,2.47
2019-03-17T10:00:26.603Z,2.30
2019-03-17T10:03:31.889Z,2.30
2019-03-17T10:06:37.129Z,2.43
2019-03-17T10:09:42.439Z,2.70
2019-03-17T10:12:47.680Z,2.10
2019-03-17T10:15:53.011Z,2.50
2019-03-17T10:18:58.294Z,2.30
2019-03-17T10:22:03.590Z,2.30
2019-03-17T10:25:10.285Z,2.77
2019-03-17T10:28:19.053Z,2.43
2019-03-17T10:31:24.452Z,2.43
2019-03-17T10:34:29.655Z,2.57
2019-03-17T10:37:35.952Z,2.47
2019-03-17T10:40:41.353Z,2.60
2019-03-17T10:43:46.589Z,2.70
2019-03-17T10:46:51.825Z,3.10
2019-03-17T10:49:59.505Z,3.10
2019-03-17T10:53:04.765Z,2.40
2019-03-17T10:56:10.044Z,2.40
2019-03-17T10:59:15.285Z,2.67
2019-03-17T11:02:20.668Z,2.70
2019-03-17T11:05:25.912Z,2.80
2019-03-17T11:08:31.209Z,2.70
2019-03-17T11:11:36.553Z,2.60
2019-03-17T11:14:43.013Z,2.60
2019-03-17T11:17:48.284Z,2.50
2019-03-17T11:20:55.978Z,2.70
2019-03-17T11:24:01.409Z,2.70
2019-03-17T11:27:06.757Z,2.80
2019-03-17T11:30:12.716Z,3.00
2019-03-17T11:33:18.079Z,2.87
2019-03-17T11:36:23.331Z,2.90
2019-03-17T11:39:37.155Z,2.90
2019-03-17T11:42:35.650Z,2.63
2019-03-17T11:45:40.900Z,3.17
2019-03-17T11:48:46.134Z,2.80
2019-03-17T11:51:52.533Z,2.70
2019-03-17T11:54:57.819Z,2.63
2019-03-17T11:58:03.119Z,2.60
2019-03-17T12:01:08.373Z,2.50
2019-03-17T12:04:13.643Z,2.50
2019-03-17T12:07:19.015Z,2.67
2019-03-17T12:10:24.399Z,2.60
2019-03-17T12:13:29.848Z,3.00
2019-03-17T12:16:35.175Z,3.20
2019-03-17T12:19:42.935Z,3.60
2019-03-17T12:22:48.259Z,3.10
2019-03-17T12:25:53.742Z,3.67
2019-03-17T12:28:59.042Z,2.90
2019-03-17T12:32:04.302Z,2.70
2019-03-17T12:35:09.559Z,2.90
2019-03-17T12:38:14.861Z,3.50
2019-03-17T12:41:20.238Z,2.90
2019-03-17T12:44:25.527Z,3.00
2019-03-17T12:47:30.761Z,2.50
2019-03-17T12:50:36.030Z,2.87
2019-03-17T12:53:41.264Z,2.77
2019-03-17T12:56:46.588Z,2.77
2019-03-17T12:59:51.889Z,2.87
2019-03-17T13:02:57.250Z,2.63
2019-03-17T13:06:02.513Z,2.37
2019-03-17T13:09:08.157Z,2.20
2019-03-17T13:12:13.458Z,2.60
2019-03-17T13:15:18.769Z,2.00
2019-03-17T13:18:24.249Z,1.97
2019-03-17T13:21:29.504Z,1.80
2019-03-17T13:24:38.196Z,1.60
2019-03-17T13:27:43.445Z,2.10
2019-03-17T13:30:49.643Z,2.07
2019-03-17T13:33:55.159Z,1.90
2019-03-17T13:37:00.485Z,1.83
2019-03-17T13:40:07.174Z,1.93
2019-03-17T13:43:12.398Z,1.80
2019-03-17T13:46:17.677Z,1.80
2019-03-17T13:49:22.916Z,1.90
2019-03-17T13:52:28.227Z,1.70
2019-03-17T13:55:33.502Z,2.10
2019-03-17T13:58:38.809Z,1.80
2019-03-17T14:01:47.961Z,2.57
2019-03-17T14:04:54.830Z,1.90
2019-03-17T14:08:00.287Z,2.00
2019-03-17T14:11:05.682Z,1.90
2019-03-17T14:14:10.928Z,2.10
2019-03-17T14:17:16.249Z,2.33
2019-03-17T14:20:21.589Z,2.10
2019-03-17T14:23:26.983Z,2.50
2019-03-17T14:26:32.251Z,2.50
2019-03-17T14:29:37.543Z,2.30
2019-03-17T14:32:42.826Z,2.20
2019-03-17T14:35:48.189Z,2.10
2019-03-17T14:38:53.428Z,2.00
2019-03-17T14:41:58.762Z,2.20
2019-03-17T14:45:04.296Z,2.00
2019-03-17T14:48:09.574Z,2.20
2019-03-17T14:51:14.902Z,2.43
2019-03-17T14:54:21.285Z,2.03
2019-03-17T14:57:26.597Z,2.00
2019-03-17T15:00:31.963Z,1.90
2019-03-17T15:03:37.253Z,2.90
2019-03-17T15:06:44.132Z,2.13
2019-03-17T15:09:50.750Z,2.07
2019-03-17T15:12:56.008Z,2.00
2019-03-17T15:16:03.075Z,2.00
2019-03-17T15:19:08.319Z,2.20
2019-03-17T15:22:13.603Z,1.90
2019-03-17T15:25:19.056Z,2.13
2019-03-17T15:28:24.414Z,2.40
2019-03-17T15:31:29.702Z,2.00
2019-03-17T15:34:35.148Z,2.30
2019-03-17T15:37:40.463Z,2.00
2019-03-17T15:40:45.747Z,2.20
2019-03-17T15:43:51.104Z,2.10
2019-03-17T15:46:56.359Z,2.33
2019-03-17T15:50:01.621Z,2.03
2019-03-17T15:53:06.976Z,2.50
2019-03-17T15:56:12.249Z,1.97
2019-03-17T15:59:17.584Z,2.23
2019-03-17T16:02:27.680Z,2.17
2019-03-17T16:05:31.480Z,2.20
2019-03-17T16:08:39.063Z,2.50
2019-03-17T16:11:44.444Z,2.20
2019-03-17T16:14:49.718Z,2.20
2019-03-17T16:17:54.988Z,2.20
2019-03-17T16:21:00.328Z,2.40
2019-03-17T16:24:05.754Z,2.40
2019-03-17T16:27:15.534Z,2.10
2019-03-17T16:30:21.250Z,2.23
2019-03-17T16:33:26.627Z,2.00
2019-03-17T16:36:31.989Z,2.37
2019-03-17T16:39:37.202Z,2.90
2019-03-17T16:42:42.462Z,3.60
2019-03-17T16:45:49.424Z,4.80
2019-03-17T16:48:57.251Z,2.67
2019-03-17T16:52:02.559Z,2.60
2019-03-17T16:55:07.926Z,3.63
2019-03-17T16:58:13.203Z,3.20
2019-03-17T17:01:18.493Z,2.20
2019-03-17T17:04:23.782Z,2.30
2019-03-17T17:07:30.436Z,2.77
2019-03-17T17:10:38.179Z,2.90
2019-03-17T17:13:42.668Z,2.63
2019-03-17T17:16:48.058Z,2.80
2019-03-17T17:19:53.343Z,2.63
2019-03-17T17:22:58.703Z,2.63
2019-03-17T17:26:04.010Z,2.63
2019-03-17T17:29:09.299Z,2.90
2019-03-17T17:32:14.622Z,3.67
2019-03-17T17:35:19.883Z,4.30
2019-03-17T17:38:25.248Z,4.97
2019-03-17T17:41:31.296Z,6.20
2019-03-17T17:44:36.571Z,5.47
2019-03-17T17:47:44.118Z,5.83
2019-03-17T17:50:49.457Z,4.33
2019-03-17T17:53:54.772Z,4.30
2019-03-17T17:57:00.011Z,5.00
2019-03-17T18:00:06.101Z,5.17
2019-03-17T18:03:11.450Z,5.67
2019-03-17T18:06:16.676Z,4.63
2019-03-17T18:09:21.938Z,4.70
2019-03-17T18:12:27.218Z,4.00
2019-03-17T18:15:32.578Z,4.43
2019-03-17T18:18:37.862Z,4.47
2019-03-17T18:21:43.268Z,3.97
2019-03-17T18:24:48.611Z,4.07
2019-03-17T18:27:53.982Z,4.10
2019-03-17T18:30:59.242Z,5.00
2019-03-17T18:34:04.520Z,4.40
2019-03-17T18:37:11.445Z,3.77
2019-03-17T18:40:18.532Z,3.60
2019-03-17T18:43:24.001Z,3.90
2019-03-17T18:46:29.310Z,3.57
2019-03-17T18:49:34.633Z,3.30
2019-03-17T18:52:39.921Z,3.50
2019-03-17T18:55:45.261Z,3.73
2019-03-17T18:58:50.607Z,4.00
2019-03-17T19:01:55.932Z,5.37
2019-03-17T19:05:01.201Z,5.30
2019-03-17T19:08:07.440Z,5.00
2019-03-17T19:11:12.811Z,4.77
2019-03-17T19:14:18.541Z,5.60
2019-03-17T19:17:24.021Z,4.80
2019-03-17T19:20:29.396Z,4.13
2019-03-17T19:23:34.641Z,4.97
2019-03-17T19:26:39.932Z,4.20
2019-03-17T19:29:45.255Z,5.40
2019-03-17T19:32:50.721Z,3.80
2019-03-17T19:35:56.155Z,3.83
2019-03-17T19:39:02.746Z,4.13
2019-03-17T19:42:08.071Z,4.53
2019-03-17T19:45:14.942Z,5.40
2019-03-17T19:48:20.586Z,6.93
2019-03-17T19:51:25.995Z,12.20
2019-03-17T19:54:31.292Z,13.13
2019-03-17T19:57:36.649Z,15.50
2019-03-17T20:00:42.046Z,17.80
2019-03-17T20:03:47.366Z,18.00
2019-03-17T20:06:52.651Z,19.70
2019-03-17T20:09:58.056Z,18.47
2019-03-17T20:13:11.521Z,18.67
2019-03-17T20:16:10.301Z,19.80
2019-03-17T20:19:15.553Z,19.20
2019-03-17T20:22:20.910Z,20.10
2019-03-17T20:25:26.207Z,18.20
2019-03-17T20:28:31.533Z,18.83
2019-03-17T20:31:47.658Z,16.63
2019-03-17T20:34:48.283Z,17.00
2019-03-17T20:37:53.580Z,14.63
2019-03-17T20:40:58.895Z,16.80
2019-03-17T20:44:04.266Z,14.53
2019-03-17T20:47:09.557Z,14.60
2019-03-17T20:50:17.326Z,10.67
2019-03-17T20:53:22.657Z,7.63
2019-03-17T20:56:29.370Z,8.20
2019-03-17T20:59:34.632Z,7.63
2019-03-17T21:02:41.010Z,8.87
2019-03-17T21:05:53.605Z,9.07
2019-03-17T21:08:55.847Z,6.80
2019-03-17T21:12:03.142Z,7.10
2019-03-17T21:15:10.104Z,8.20
2019-03-17T21:18:15.486Z,6.10
2019-03-17T21:21:20.867Z,5.70
2019-03-17T21:24:26.246Z,5.33
2019-03-17T21:27:31.679Z,5.17
2019-03-17T21:30:37.034Z,4.77
2019-03-17T21:33:42.394Z,4.40
2019-03-17T21:36:47.741Z,5.80
2019-03-17T21:39:53.177Z,8.63
2019-03-17T21:42:59.601Z,4.53
2019-03-17T21:46:04.942Z,3.80
2019-03-17T21:49:10.226Z,4.33
2019-03-17T21:52:15.604Z,4.43
2019-03-17T21:55:21.904Z,3.70
2019-03-17T21:58:31.290Z,4.00
2019-03-17T22:01:36.721Z,3.60
2019-03-17T22:04:42.189Z,3.10
2019-03-17T22:07:50.591Z,3.50
2019-03-17T22:10:54.527Z,3.30
2019-03-17T22:14:11.616Z,3.50
2019-03-17T22:17:06.808Z,3.87
2019-03-17T22:20:12.344Z,3.00
2019-03-17T22:23:17.735Z,3.27
2019-03-17T22:26:23.239Z,3.60
2019-03-17T22:29:28.581Z,3.40
2019-03-17T22:32:33.887Z,3.50
2019-03-17T22:35:40.639Z,3.70
2019-03-17T22:38:49.234Z,3.23
2019-03-17T22:41:54.639Z,3.83
2019-03-17T22:45:00.025Z,3.77
2019-03-17T22:48:05.472Z,4.10
2019-03-17T22:51:10.765Z,3.70
2019-03-17T22:54:16.154Z,4.50
2019-03-17T22:57:21.355Z,3.73
2019-03-17T23:00:45.856Z,3.90
2019-03-17T23:03:53.624Z,5.13
2019-03-17T23:06:58.948Z,4.00
2019-03-17T23:10:04.871Z,4.50
2019-03-17T23:13:10.120Z,4.03
2019-03-17T23:16:15.455Z,4.13
2019-03-17T23:19:20.863Z,3.93
2019-03-17T23:22:33.721Z,4.33
2019-03-17T23:25:39.289Z,3.77
2019-03-17T23:28:44.747Z,3.87
2019-03-17T23:31:50.750Z,4.23
2019-03-17T23:34:56.974Z,4.70
2019-03-17T23:38:02.332Z,4.93
2019-03-17T23:41:07.694Z,5.60
2019-03-17T23:44:13.028Z,5.90
2019-03-17T23:47:18.363Z,5.80
2019-03-17T23:50:23.614Z,6.30
2019-03-17T23:53:28.935Z,6.80
2019-03-17T23:56:34.207Z,7.37
2019-03-17T23:59:41.395Z,7.03
